Time;durP1;ratioP1;P1;durP2;ratioP2;P2;SDS_P1;SDS_P2;PMS_P1;PMS_P2;Temp;Humidity;BMP_temperature;BMP_pressure;BME280_temperature;BME280_humidity;BME280_pressure;Samples;Min_cycle;Max_cycle;Signal;HPM_P1;HPM_P2
2022/04/18 00:01:51;;;;;;;1.85;1.40;;;;;;;;;;5043646;28;20067;-77
2022/04/18 00:04:17;;;;;;;2.75;1.38;;;;;;;;;;5042782;28;20400;-77
2022/04/18 00:06:42;;;;;;;2.75;1.20;;;2.80;99.90;;;;;;5044645;28;20033;-77
2022/04/18 00:09:08;;;;;;;1.25;1.08;;;;;;;;;;5048042;28;20029;-77
2022/04/18 00:11:34;;;;;;;4.35;1.13;;;;;;;;;;5040958;28;20169;-78
2022/04/18 00:14:01;;;;;;;3.33;1.45;;;;;;;;;;5047358;28;20052;-78
2022/04/18 00:16:26;;;;;;;2.08;1.38;;;;;;;;;;5044282;28;20071;-77
2022/04/18 00:18:53;;;;;;;1.25;0.80;;;;;;;;;;5047074;28;20389;-78
2022/04/18 00:21:19;;;;;;;2.58;1.52;;;;;;;;;;5046549;28;20075;-76
2022/04/18 00:23:45;;;;;;;1.98;1.15;;;;;;;;;;5039669;28;20020;-77
2022/04/18 00:26:11;;;;;;;2.83;1.35;;;;;;;;;;5047245;28;20037;-76
2022/04/18 00:28:38;;;;;;;3.85;1.83;;;;;;;;;;5045783;28;20025;-76
2022/04/18 00:31:04;;;;;;;4.35;1.77;;;;;;;;;;5041500;28;20555;-77
2022/04/18 00:33:30;;;;;;;4.25;1.50;;;;;;;;;;5045853;28;20128;-79
2022/04/18 00:35:56;;;;;;;2.83;1.10;;;;;;;;;;5047880;28;20040;-77
2022/04/18 00:38:23;;;;;;;1.55;1.02;;;;;;;;;;5038868;28;20017;-77
2022/04/18 00:40:49;;;;;;;3.33;1.60;;;;;;;;;;5042623;28;20020;-78
2022/04/18 00:43:16;;;;;;;2.80;1.65;;;;;;;;;;5039961;28;20025;-77
2022/04/18 00:45:42;;;;;;;;;;;;;;;;;;5036306;28;20029;-78
2022/04/18 00:48:07;;;;;;;;;;;;;;;;;;5042261;28;20390;-78
2022/04/18 00:50:33;;;;;;;;;;;;;;;;;;5040319;28;19922;-77
2022/04/18 00:52:59;;;;;;;1.33;1.00;;;;;;;;;;5044930;28;19913;-78
2022/04/18 00:55:26;;;;;;;4.47;1.85;;;;;;;;;;5041496;28;20417;-77
2022/04/18 00:57:53;;;;;;;2.28;1.38;;;1.90;99.90;;;;;;5043237;28;20040;-77
2022/04/18 01:00:19;;;;;;;2.10;1.00;;;;;;;;;;5044726;28;20151;-78
2022/04/18 01:02:45;;;;;;;2.05;1.10;;;;;;;;;;5044460;28;20108;-77
2022/04/18 01:05:12;;;;;;;7.13;0.88;;;;;;;;;;5043905;28;20486;-77
2022/04/18 01:07:39;;;;;;;2.50;1.73;;;;;;;;;;5041487;28;20037;-78
2022/04/18 01:10:05;;;;;;;4.30;1.73;;;;;;;;;;5039503;28;20036;-77
2022/04/18 01:12:31;;;;;;;1.77;1.25;;;;;;;;;;5046726;28;20078;-77
2022/04/18 01:14:57;;;;;;;1.80;1.40;;;;;;;;;;5045890;28;20045;-77
2022/04/18 01:17:23;;;;;;;3.10;1.67;;;;;;;;;;5048433;28;20096;-78
2022/04/18 01:19:49;;;;;;;3.83;1.77;;;;;;;;;;5042186;28;20485;-78
2022/04/18 01:22:15;;;;;;;2.25;1.35;;;;;;;;;;5045417;28;20044;-78
2022/04/18 01:30:13;;;;;;;2.30;1.30;;;;;;;;;;5040337;28;20036;-78
2022/04/18 01:32:39;;;;;;;1.65;1.20;;;;;;;;;;5046264;28;20032;-78
2022/04/18 01:35:06;;;;;;;4.55;1.67;;;;;;;;;;5044948;28;20029;-79
2022/04/18 01:37:32;;;;;;;2.92;1.25;;;;;;;;;;5040486;28;20032;-77
2022/04/18 01:39:58;;;;;;;4.10;1.60;;;;;;;;;;5040390;28;20029;-78
2022/04/18 01:42:24;;;;;;;1.33;1.08;;;;;;;;;;5049953;28;20040;-79
2022/04/18 01:44:51;;;;;;;2.30;1.33;;;;;;;;;;5041579;28;20032;-78
2022/04/18 01:47:17;;;;;;;3.25;1.58;;;;;;;;;;5046396;28;20041;-77
2022/04/18 01:49:43;;;;;;;2.15;1.33;;;;;;;;;;5040316;28;20064;-78
2022/04/18 01:52:09;;;;;;;5.68;1.83;;;;;;;;;;5043969;28;20036;-77
2022/04/18 01:54:35;;;;;;;3.20;1.48;;;;;;;;;;5040818;28;20025;-78
2022/04/18 01:57:01;;;;;;;1.83;1.02;;;;;;;;;;5041882;28;20080;-77
2022/04/18 01:59:27;;;;;;;2.65;1.63;;;;;;;;;;5038691;28;20052;-79
2022/04/18 02:01:53;;;;;;;4.72;1.77;;;;;;;;;;5046250;28;20033;-78
2022/04/18 02:04:19;;;;;;;3.35;1.80;;;;;;;;;;5045751;28;20036;-77
2022/04/18 02:06:45;;;;;;;3.92;1.60;;;;;;;;;;5042182;28;20037;-78
2022/04/18 02:09:11;;;;;;;1.98;1.83;;;;;;;;;;5043808;28;20024;-77
2022/04/18 02:11:37;;;;;;;6.80;1.77;;;;;;;;;;5045020;28;20043;-78
2022/04/18 02:14:03;;;;;;;3.88;1.88;;;;;;;;;;5039504;28;20149;-79
2022/04/18 02:16:29;;;;;;;4.00;2.17;;;;;;;;;;5047235;28;20028;-78
2022/04/18 02:18:55;;;;;;;3.47;1.85;;;;;;;;;;5042227;28;20017;-78
2022/04/18 02:21:21;;;;;;;2.17;1.95;;;;;;;;;;5040000;28;20021;-78
2022/04/18 02:23:47;;;;;;;2.92;1.95;;;;;;;;;;5042520;28;20035;-77
2022/04/18 02:26:13;;;;;;;2.42;1.50;;;;;;;;;;5045651;28;20044;-78
2022/04/18 02:28:40;;;;;;;6.85;3.53;;;;;;;;;;5043671;28;20391;-78
2022/04/18 02:31:07;;;;;;;1.73;1.35;;;;;;;;;;5044732;28;20037;-76
2022/04/18 02:33:33;;;;;;;2.97;1.77;;;;;;;;;;5042490;28;20032;-78
2022/04/18 02:36:01;;;;;;;2.03;1.38;;;;;;;;;;5041042;28;20056;-78
2022/04/18 02:38:27;;;;;;;2.75;1.70;;;;;;;;;;5040123;28;20511;-78
2022/04/18 02:40:53;;;;;;;2.97;2.28;;;;;;;;;;5041591;28;20041;-77
2022/04/18 02:43:19;;;;;;;1.85;1.50;;;;;;;;;;5046112;28;20033;-77
2022/04/18 02:45:45;;;;;;;2.83;1.90;;;;;;;;;;5041883;28;20132;-79
2022/04/18 02:48:11;;;;;;;2.42;1.13;;;;;;;;;;5039102;28;20037;-78
2022/04/18 02:50:37;;;;;;;3.28;1.38;;;;;;;;;;5043672;28;20105;-78
2022/04/18 02:53:03;;;;;;;2.92;1.08;;;;;;;;;;5045613;28;20622;-78
2022/04/18 02:55:29;;;;;;;3.78;1.13;;;;;;;;;;5040074;28;20803;-77
2022/04/18 02:57:55;;;;;;;1.95;1.30;;;;;;;;;;5042324;28;20428;-79
2022/04/18 03:00:20;;;;;;;4.43;2.25;;;0.90;99.90;;;;;;5043664;28;20111;-77
2022/04/18 03:02:46;;;;;;;2.65;1.55;;;;;;;;;;5045458;28;20491;-77
2022/04/18 03:05:13;;;;;;;2.78;1.27;;;;;;;;;;5048547;28;20397;-79
2022/04/18 03:07:39;;;;;;;4.97;1.60;;;;;;;;;;5045184;28;20095;-77
2022/04/18 03:10:06;;;;;;;1.58;1.33;;;;;;;;;;5048358;28;20029;-77
2022/04/18 03:12:32;;;;;;;3.55;2.40;;;;;;;;;;5047751;28;20083;-79
2022/04/18 03:14:58;;;;;;;1.55;1.25;;;;;;;;;;5043368;28;20115;-77
2022/04/18 03:17:24;;;;;;;2.45;1.63;;;;;;;;;;5040527;28;20032;-78
2022/04/18 03:19:50;;;;;;;8.95;1.77;;;;;;;;;;5044389;28;20033;-77
2022/04/18 03:22:16;;;;;;;5.35;1.77;;;;;;;;;;5047266;28;20037;-78
2022/04/18 03:24:42;;;;;;;2.08;1.48;;;;;;;;;;5048716;28;20089;-77
2022/04/18 03:27:08;;;;;;;2.45;1.80;;;;;;;;;;5045096;28;20041;-77
2022/04/18 03:29:35;;;;;;;4.22;1.83;;;;;;;;;;5046348;28;20532;-79
2022/04/18 03:32:01;;;;;;;4.25;1.80;;;;;;;;;;5045699;28;20266;-78
2022/04/18 03:34:27;;;;;;;3.28;1.83;;;;;;;;;;5046322;28;20025;-78
2022/04/18 03:39:50;;;;;;;1.88;1.13;;;;;;;;;;5042091;28;20048;-79
2022/04/18 03:42:18;;;;;;;1.63;1.30;;;;;;;;;;5047830;28;20029;-79
2022/04/18 03:44:45;;;;;;;4.22;1.50;;;;;;;;;;5043874;28;20033;-77
2022/04/18 03:47:11;;;;;;;2.53;1.35;;;;;;;;;;5041421;28;20040;-79
2022/04/18 03:49:38;;;;;;;3.42;2.13;;;;;;;;;;5044166;28;20021;-78
2022/04/18 03:52:04;;;;;;;2.40;1.75;;;;;;;;;;5043185;28;20052;-77
2022/04/18 03:54:30;;;;;;;6.00;2.00;;;;;;;;;;5047298;28;20025;-79
2022/04/18 03:56:56;;;;;;;4.25;1.75;;;;;;;;;;5042036;28;20033;-78
2022/04/18 03:59:22;;;;;;;2.22;1.95;;;;;;;;;;5041323;28;20103;-77
2022/04/18 04:01:48;;;;;;;2.83;1.42;;;;;;;;;;5044483;28;20060;-77
2022/04/18 04:04:14;;;;;;;2.30;1.40;;;;;;;;;;5044913;28;20067;-77
2022/04/18 04:06:40;;;;;;;2.92;1.60;;;;;;;;;;5042342;28;20052;-77
2022/04/18 04:09:06;;;;;;;1.98;1.38;;;;;;;;;;5044984;28;20108;-78
2022/04/18 04:11:31;;;;;;;2.78;1.75;;;;;;;;;;5043911;28;20091;-77
2022/04/18 04:13:57;;;;;;;3.50;2.28;;;;;;;;;;5046271;28;20059;-78
2022/04/18 04:16:23;;;;;;;2.75;1.83;;;;;;;;;;5043756;28;20025;-78
2022/04/18 04:18:49;;;;;;;2.40;1.52;;;;;;;;;;5043768;28;20017;-78
2022/04/18 04:21:16;;;;;;;3.92;2.20;;;;;;;;;;5046801;28;20037;-77
2022/04/18 04:23:42;;;;;;;5.10;1.60;;;;;;;;;;5040748;28;20500;-76
2022/04/18 04:26:08;;;;;;;2.85;1.83;;;;;;;;;;5043779;28;20037;-77
2022/04/18 04:28:34;;;;;;;4.03;1.15;;;;;;;;;;5050011;28;20052;-76
2022/04/18 04:31:03;;;;;;;2.63;1.88;;;;;;;;;;5045241;28;20040;-78
2022/04/18 04:33:30;;;;;;;7.80;2.10;;;;;;;;;;5045870;28;20036;-77
2022/04/18 04:35:57;;;;;;;2.83;1.88;;;;;;;;;;5045508;28;20041;-77
2022/04/18 04:38:23;;;;;;;4.22;2.00;;;;;;;;;;5048157;28;20040;-78
2022/04/18 04:40:49;;;;;;;5.07;2.03;;;;;;;;;;5046177;28;20040;-78
2022/04/18 04:43:15;;;;;;;2.63;1.70;;;;;;;;;;5047638;28;20033;-79
2022/04/18 04:45:41;;;;;;;4.55;2.65;;;;;;;;;;5035772;28;20068;-78
2022/04/18 04:48:07;;;;;;;6.25;2.88;;;;;;;;;;5043022;28;20032;-76
2022/04/18 04:50:33;;;;;;;2.20;1.73;;;;;;;;;;5042928;28;20039;-77
2022/04/18 04:53:00;;;;;;;5.93;2.25;;;;;;;;;;5046479;28;20531;-79
2022/04/18 04:55:27;;;;;;;3.80;2.30;;;;;;;;;;5039500;28;20037;-78
2022/04/18 04:57:53;;;;;;;3.28;1.92;;;;;;;;;;5038427;28;20025;-78
2022/04/18 05:00:19;;;;;;;8.93;2.33;;;;;;;;;;5046139;28;20116;-77
2022/04/18 05:02:46;;;;;;;2.78;1.55;;;;;;;;;;5044819;28;20025;-77
2022/04/18 05:05:12;;;;;;;5.40;1.80;;;;;;;;;;5049661;28;20171;-78
2022/04/18 05:07:38;;;;;;;2.42;1.73;;;;;;;;;;5048736;28;20060;-78
2022/04/18 05:10:04;;;;;;;2.95;2.08;;;;;;;;;;5042357;28;20072;-78
2022/04/18 05:12:32;;;;;;;8.93;2.03;;;;;;;;;;5043680;28;20036;-78
2022/04/18 05:15:04;;;;;;;5.78;1.70;;;;;;;;;;5044524;28;20516;-77
2022/04/18 05:17:30;;;;;;;3.88;1.65;;;;;;;;;;5040378;28;20028;-77
2022/04/18 05:19:56;;;;;;;5.00;2.20;;;;;;;;;;5045665;28;20036;-76
2022/04/18 05:22:22;;;;;;;4.35;2.53;;;;;;;;;;5042280;28;20638;-79
2022/04/18 05:24:48;;;;;;;10.10;2.58;;;;;;;;;;5040092;28;20028;-77
2022/04/18 05:27:15;;;;;;;3.10;1.73;;;;;;;;;;5043283;28;20393;-77
2022/04/18 05:29:41;;;;;;;2.92;1.52;;;;;;;;;;5042519;28;20032;-77
2022/04/18 05:32:08;;;;;;;8.82;2.47;;;;;;;;;;5039485;28;20029;-79
2022/04/18 05:34:34;;;;;;;2.38;1.70;;;;;;;;;;5042533;28;20059;-76
2022/04/18 05:36:59;;;;;;;1.27;1.17;;;;;;;;;;5046439;28;20446;-76
2022/04/18 05:39:26;;;;;;;5.18;2.33;;;;;;;;;;5045547;28;20052;-77
2022/04/18 05:41:52;;;;;;;2.90;1.30;;;;;;;;;;5029173;28;20178;-77
2022/04/18 05:44:18;;;;;;;10.80;2.58;;;;;;;;;;5034361;28;20029;-78
2022/04/18 05:46:44;;;;;;;3.30;2.13;;;;;;;;;;5040787;28;20040;-78
2022/04/18 05:49:10;;;;;;;3.35;1.65;;;;;;;;;;5044471;28;20025;-76
2022/04/18 05:51:38;;;;;;;5.22;1.45;;;;;;;;;;5044082;28;20417;-78
2022/04/18 05:54:04;;;;;;;3.63;2.20;;;;;;;;;;5047956;28;20548;-77
2022/04/18 05:56:30;;;;;;;4.32;2.15;;;;;;;;;;5045562;28;20389;-81
2022/04/18 05:58:57;;;;;;;7.20;2.47;;;;;;;;;;5035892;28;20108;-80
2022/04/18 06:01:23;;;;;;;2.05;1.88;;;;;;;;;;5049731;28;20029;-79
2022/04/18 06:03:49;;;;;;;3.13;1.20;;;;;;;;;;5041726;28;20485;-80
2022/04/18 06:06:15;;;;;;;2.60;1.30;;;;;;;;;;5042011;28;20048;-78
2022/04/18 06:08:42;;;;;;;5.28;2.22;;;;;;;;;;5034533;28;20026;-80
2022/04/18 06:11:08;;;;;;;4.75;2.03;;;;;;;;;;5043852;28;20650;-80
2022/04/18 06:13:34;;;;;;;6.68;2.90;;;;;;;;;;5038012;28;20055;-77
2022/04/18 06:16:00;;;;;;;4.95;2.40;;;;;;;;;;5038249;28;20082;-77
2022/04/18 06:18:27;;;;;;;3.25;1.60;;;;;;;;;;5037436;28;20037;-78
2022/04/18 06:20:53;;;;;;;5.40;2.10;;;;;;;;;;5036360;28;20621;-78
2022/04/18 06:23:19;;;;;;;3.72;1.70;;;;;;;;;;5035255;28;20525;-78
2022/04/18 06:25:45;;;;;;;4.63;2.38;;;;;;;;;;5046681;28;20096;-78
2022/04/18 06:28:15;;;;;;;4.32;2.85;;;;;;;;;;5033784;28;20483;-78
2022/04/18 06:30:41;;;;;;;3.15;2.25;;;;;;;;;;5042484;28;20082;-77
2022/04/18 06:33:11;;;;;;;5.03;2.97;;;;;;;;;;5037877;28;20025;-78
2022/04/18 06:35:37;;;;;;;6.55;2.58;;;;;;;;;;5039119;28;20094;-76
2022/04/18 06:38:03;;;;;;;5.63;1.98;;;;;;;;;;5036450;28;20080;-78
2022/04/18 06:40:29;;;;;;;5.28;2.63;;;;;;;;;;5032639;28;20389;-80
2022/04/18 06:42:55;;;;;;;4.70;2.05;;;;;;;;;;5041424;28;20025;-78
2022/04/18 06:45:21;;;;;;;3.17;1.98;;;;;;;;;;5035450;28;20127;-79
2022/04/18 06:47:47;;;;;;;4.55;1.85;;;;;;;;;;5031646;28;20090;-80
2022/04/18 06:50:13;;;;;;;3.25;2.03;;;;;;;;;;5034380;28;20021;-79
2022/04/18 06:52:41;;;;;;;12.55;2.70;;;;;;;;;;5035019;28;20036;-83
2022/04/18 06:55:07;;;;;;;4.40;1.60;;;;;;;;;;5037479;28;20398;-80
2022/04/18 06:57:33;;;;;;;5.28;1.85;;;;;;;;;;5032036;28;20036;-77
2022/04/18 06:59:59;;;;;;;11.27;2.22;;;;;;;;;;5031982;28;20032;-78
2022/04/18 07:02:25;;;;;;;;;;;;;;;;;;5042244;28;20033;-80
2022/04/18 07:04:51;;;;;;;;;;;;;;;;;;5037610;28;19923;-78
2022/04/18 07:07:17;;;;;;;3.58;2.00;;;;;;;;;;5045699;28;20430;-77
2022/04/18 07:09:43;;;;;;;4.63;1.83;;;;;;;;;;5041077;28;20029;-77
2022/04/18 07:12:09;;;;;;;3.15;1.48;;;;;;;;;;5040205;28;20033;-80
2022/04/18 07:14:36;;;;;;;2.92;1.60;;;;;;;;;;5043889;28;20399;-79
2022/04/18 07:17:02;;;;;;;6.32;1.83;;;;;;;;;;5031645;28;20033;-78
2022/04/18 07:19:28;;;;;;;4.22;1.75;;;;;;;;;;5032450;28;20032;-78
2022/04/18 07:21:55;;;;;;;2.78;1.27;;;;;;;;;;5040303;28;20041;-77
2022/04/18 07:24:23;;;;;;;2.45;1.65;;;;;;;;;;5041802;28;20058;-78
2022/04/18 07:26:49;;;;;;;3.55;1.60;;;;;;;;;;5043409;28;20166;-78
2022/04/18 07:29:15;;;;;;;2.42;1.20;;;;;;;;;;5043686;28;20025;-77
2022/04/18 07:31:41;;;;;;;3.67;1.27;;;;;;;;;;5043782;28;20040;-78
2022/04/18 07:34:07;;;;;;;3.78;1.67;;;;;;;;;;5044694;28;20307;-79
2022/04/18 07:36:33;;;;;;;4.57;2.05;;;;;;;;;;5042406;28;20040;-78
2022/04/18 07:38:59;;;;;;;4.53;1.80;;;;;;;;;;5028631;28;20032;-78
2022/04/18 07:41:27;;;;;;;4.40;1.10;;;;;;;;;;5040205;28;20075;-77
2022/04/18 07:43:53;;;;;;;3.88;1.45;;;;;;;;;;5037597;28;20017;-77
2022/04/18 07:46:19;;;;;;;5.43;1.40;;;;;;;;;;5042496;28;20045;-78
2022/04/18 07:48:46;;;;;;;4.65;1.60;;;;;;;;;;5041257;28;20111;-78
2022/04/18 07:53:57;;;;;;;5.65;2.15;;;;;;;;;;5037477;28;20080;-77
2022/04/18 07:56:23;;;;;;;2.13;1.02;;;;;;;;;;5041911;28;20040;-78
2022/04/18 07:58:50;;;;;;;4.95;1.73;;;;;;;;;;5036099;28;20025;-76
2022/04/18 08:01:16;;;;;;;4.90;1.55;;;;;;;;;;5033930;28;20136;-78
2022/04/18 08:03:42;;;;;;;4.78;1.48;;;;;;;;;;5038550;28;20139;-78
2022/04/18 08:06:09;;;;;;;4.95;1.65;;;;;;;;;;5036953;28;20523;-78
2022/04/18 08:08:35;;;;;;;3.72;1.23;;;;;;;;;;5039857;28;20029;-78
2022/04/18 08:11:01;;;;;;;5.30;1.55;;;;;;;;;;5039278;28;20033;-78
2022/04/18 08:13:27;;;;;;;3.15;1.17;;;;;;;;;;5039305;28;20025;-78
2022/04/18 08:15:53;;;;;;;3.35;0.98;;;;;;;;;;5033834;28;20433;-79
2022/04/18 08:18:20;;;;;;;5.13;1.40;;;;;;;;;;5034763;28;20717;-78
2022/04/18 08:20:46;;;;;;;7.15;1.58;;;;;;;;;;5038649;28;20353;-78
2022/04/18 08:23:12;;;;;;;3.00;1.20;;;;;;;;;;5045378;28;20021;-79
2022/04/18 08:25:38;;;;;;;4.45;1.67;;;;;;;;;;5041560;28;20111;-78
2022/04/18 08:28:04;;;;;;;2.95;1.30;;;;;;;;;;5044916;28;20039;-78
2022/04/18 08:30:30;;;;;;;2.65;1.50;;;;;;;;;;5033677;28;20021;-78
2022/04/18 08:32:56;;;;;;;3.17;1.25;;;;;;;;;;5050558;28;20025;-78
2022/04/18 08:35:22;;;;;;;3.45;1.58;;;;;;;;;;5044889;28;20365;-78
2022/04/18 08:37:48;;;;;;;;;;;;;;;;;;5048912;28;20032;-79
2022/04/18 08:40:14;;;;;;;2.97;1.50;;;;;;;;;;5042794;28;19936;-77
2022/04/18 08:42:41;;;;;;;5.40;1.48;;;;;;;;;;5045106;28;20082;-77
2022/04/18 08:45:09;;;;;;;7.18;1.48;;;;;;;;;;5036296;28;20037;-77
2022/04/18 08:53:06;;;;;;;3.50;1.33;;;;;;;;;;5045429;28;20048;-78
2022/04/18 08:55:33;;;;;;;2.15;0.80;;;;;;;;;;5047793;28;20033;-79
2022/04/18 08:57:59;;;;;;;2.22;0.93;;;;;;;;;;5049896;28;20033;-80
2022/04/18 09:00:25;;;;;;;3.20;1.33;;;;;;;;;;5041179;28;20560;-80
2022/04/18 09:02:51;;;;;;;3.50;1.08;;;;;;;;;;5047311;28;20040;-79
2022/04/18 09:05:16;;;;;;;3.67;0.88;;;;;;;;;;5044808;28;20025;-79
2022/04/18 09:07:43;;;;;;;4.10;1.20;;;;;;;;;;5048083;28;20038;-79
2022/04/18 09:10:10;;;;;;;2.92;1.10;;;;;;;;;;5049775;28;20028;-80
2022/04/18 09:12:40;;;;;;;2.58;1.23;;;;;;;;;;5040655;28;20109;-79
2022/04/18 09:15:07;;;;;;;1.58;0.77;;;;;;;;;;5036783;28;20551;-81
2022/04/18 09:17:36;;;;;;;3.40;1.08;;;21.90;44.20;;;;;;5041260;28;20051;-79
2022/04/18 09:20:06;;;;;;;2.33;0.88;;;;;;;;;;5042267;28;20106;-79
2022/04/18 09:22:40;;;;;;;4.68;1.13;;;;;;;;;;5044275;28;20072;-78
2022/04/18 09:25:12;;;;;;;1.10;0.52;;;;;;;;;;5050909;28;20040;-78
2022/04/18 09:27:38;;;;;;;4.20;0.98;;;;;;;;;;5041083;28;20044;-78
2022/04/18 09:30:04;;;;;;;2.30;0.85;;;;;;;;;;5043814;28;20250;-80
2022/04/18 09:32:30;;;;;;;1.85;0.80;;;;;;;;;;5043934;28;20082;-81
2022/04/18 09:35:00;;;;;;;2.85;0.82;;;;;;;;;;5052598;28;20029;-80
2022/04/18 09:37:28;;;;;;;5.20;1.55;;;;;;;;;;5048647;28;20033;-80
2022/04/18 09:39:58;;;;;;;5.20;1.38;;;;;;;;;;5046325;28;20067;-79
2022/04/18 09:42:25;;;;;;;3.58;0.77;;;;;;;;;;5041255;28;20048;-78
2022/04/18 09:44:51;;;;;;;2.63;1.17;;;15.60;81.60;;;;;;5047494;28;20033;-78
2022/04/18 09:47:17;;;;;;;3.75;1.02;;;;;;;;;;5041708;28;20041;-79
2022/04/18 09:49:44;;;;;;;1.95;0.90;;;;;;;;;;5039235;28;20116;-78
2022/04/18 09:52:11;;;;;;;1.27;0.50;;;15.70;61.80;;;;;;5045651;28;20089;-78
2022/04/18 09:54:43;;;;;;;2.13;0.90;;;;;;;;;;5040765;28;20029;-77
2022/04/18 09:57:10;;;;;;;8.27;1.65;;;;;;;;;;5043221;28;20037;-80
2022/04/18 09:59:38;;;;;;;1.40;0.95;;;15.10;63.80;;;;;;5045526;28;20031;-79
2022/04/18 10:02:04;;;;;;;2.95;0.93;;;;;;;;;;5047880;28;20438;-78
2022/04/18 10:04:30;;;;;;;4.45;1.23;;;;;;;;;;5053744;28;20594;-78
2022/04/18 10:07:00;;;;;;;2.25;0.90;;;;;;;;;;5049253;28;20053;-79
2022/04/18 10:09:26;;;;;;;1.95;0.50;;;;;;;;;;5041816;28;20128;-79
2022/04/18 10:11:52;;;;;;;1.35;0.60;;;;;;;;;;5046598;28;20125;-80
2022/04/18 10:14:19;;;;;;;2.92;0.90;;;;;;;;;;5046860;28;20934;-80
2022/04/18 10:16:45;;;;;;;3.65;0.77;;;;;;;;;;5039357;28;20028;-80
2022/04/18 10:19:27;;;;;;;2.88;0.80;;;;;;;;;;5044095;28;20036;-80
2022/04/18 10:21:59;;;;;;;5.80;1.00;;;;;;;;;;5045566;28;20037;-80
2022/04/18 10:24:37;;;;;;;1.57;0.43;;;;;;;;;;5046923;28;20033;-78
2022/04/18 10:27:22;;;;;;;2.10;1.25;;;;;;;;;;5049417;28;20045;-80
2022/04/18 10:29:51;;;;;;;5.00;1.25;;;;;;;;;;5046152;28;20017;-80
2022/04/18 10:32:22;;;;;;;9.82;0.93;;;;;;;;;;5045789;28;20677;-80
2022/04/18 10:34:52;;;;;;;1.77;0.88;;;16.00;60.50;;;;;;5049265;28;20036;-80
2022/04/18 10:37:22;;;;;;;1.98;0.90;;;;;;;;;;5043857;28;20032;-80
2022/04/18 10:39:55;;;;;;;2.80;0.90;;;;;;;;;;5044898;28;20025;-78
2022/04/18 10:42:32;;;;;;;1.98;0.98;;;;;;;;;;5048200;28;20028;-80
2022/04/18 10:45:11;;;;;;;1.35;0.70;;;;;;;;;;5043408;28;20166;-79
2022/04/18 10:47:56;;;;;;;1.67;0.77;;;;;;;;;;5043318;28;20075;-80
2022/04/18 10:50:22;;;;;;;1.10;0.57;;;;;;;;;;5046599;28;20029;-79
2022/04/18 10:53:10;;;;;;;2.00;0.70;;;;;;;;;;5037932;28;20729;-81
2022/04/18 10:55:37;;;;;;;1.05;0.60;;;;;;;;;;5047690;28;20041;-80
2022/04/18 10:58:14;;;;;;;2.50;0.88;;;;;;;;;;5042313;28;20120;-80
2022/04/18 11:00:46;;;;;;;3.85;1.45;;;;;;;;;;5042576;28;20124;-79
2022/04/18 11:03:13;;;;;;;2.13;0.90;;;;;;;;;;5039197;28;20025;-80
2022/04/18 11:05:39;;;;;;;1.30;0.70;;;;;;;;;;5045089;28;20092;-83
2022/04/18 11:08:34;;;;;;;2.25;0.88;;;;;;;;;;5040639;28;20180;-81
2022/04/18 11:11:07;;;;;;;1.75;0.90;;;16.30;60.20;;;;;;5027211;28;20049;-80
2022/04/18 11:13:33;;;;;;;1.38;0.75;;;;;;;;;;5032825;28;20043;-80
2022/04/18 11:16:18;;;;;;;2.67;0.80;;;;;;;;;;5034647;28;20041;-80
2022/04/18 11:19:04;;;;;;;1.48;0.93;;;;;;;;;;5046999;28;20029;-79
2022/04/18 11:21:49;;;;;;;3.03;0.98;;;;;;;;;;5049231;28;20021;-81
2022/04/18 11:24:35;;;;;;;3.42;1.58;;;;;;;;;;5047046;28;20098;-79
2022/04/18 11:27:01;;;;;;;2.22;0.85;;;;;;;;;;5048609;28;20040;-80
2022/04/18 11:29:27;;;;;;;3.75;1.13;;;;;;;;;;5052507;28;20021;-82
2022/04/18 11:31:53;;;;;;;1.73;0.57;;;;;;;;;;5049191;28;20501;-80
2022/04/18 11:34:20;;;;;;;1.55;0.65;;;;;;;;;;5049500;28;20078;-80
2022/04/18 11:36:46;;;;;;;1.23;0.75;;;;;;;;;;5046485;28;20271;-80
2022/04/18 11:39:12;;;;;;;3.20;1.17;;;;;;;;;;5052931;28;20020;-80
2022/04/18 11:41:39;;;;;;;3.28;1.08;;;;;;;;;;5045996;28;20083;-79
2022/04/18 11:44:05;;;;;;;2.90;0.93;;;;;;;;;;5043152;28;20305;-79
2022/04/18 11:46:31;;;;;;;1.48;0.73;;;;;;;;;;5044492;28;20141;-80
2022/04/18 11:48:57;;;;;;;9.32;1.23;;;;;;;;;;5045699;28;20051;-78
2022/04/18 11:51:39;;;;;;;1.23;0.73;;;;;;;;;;5036960;28;20033;-80
2022/04/18 11:54:05;;;;;;;1.38;0.68;;;;;;;;;;5042199;28;20029;-79
2022/04/18 11:56:31;;;;;;;3.97;1.08;;;;;;;;;;5040799;28;20025;-79
2022/04/18 11:58:58;;;;;;;2.88;1.20;;;;;;;;;;5039995;28;20801;-79
2022/04/18 12:06:53;;;;;;;2.45;0.95;;;;;;;;;;5042231;28;20458;-79
2022/04/18 12:09:25;;;;;;;1.77;0.90;;;;;;;;;;5045598;28;20033;-79
2022/04/18 12:11:51;;;;;;;1.90;0.80;;;;;;;;;;5043127;28;20025;-78
2022/04/18 12:14:18;;;;;;;1.65;0.60;;;;;;;;;;5044372;28;22015;-78
2022/04/18 12:16:44;;;;;;;1.95;0.85;;;;;;;;;;5040644;28;20048;-78
2022/04/18 12:19:11;;;;;;;1.38;0.80;;;;;;;;;;5043839;28;20112;-78
2022/04/18 12:21:37;;;;;;;3.03;0.60;;;;;;;;;;5035058;28;20045;-78
2022/04/18 12:24:03;;;;;;;1.42;0.60;;;;;;;;;;5044030;28;20047;-78
2022/04/18 12:26:30;;;;;;;2.42;0.75;;;;;;;;;;5035967;28;20037;-78
2022/04/18 12:29:07;;;;;;;2.75;0.57;;;;;;;;;;5045557;28;20021;-78
2022/04/18 12:31:32;;;;;;;1.77;0.80;;;;;;;;;;5042827;28;20031;-78
2022/04/18 12:33:59;;;;;;;1.35;0.63;;;;;;;;;;5047989;28;20025;-78
2022/04/18 12:36:25;;;;;;;1.38;0.52;;;;;;;;;;5043452;28;20020;-79
2022/04/18 12:38:51;;;;;;;3.08;0.95;;;;;;;;;;5044102;28;20449;-80
2022/04/18 12:41:26;;;;;;;1.90;0.80;;;;;;;;;;5043672;28;20029;-79
2022/04/18 12:43:52;;;;;;;2.03;0.70;;;;;;;;;;5043705;28;20025;-80
2022/04/18 12:46:23;;;;;;;1.10;0.50;;;;;;;;;;5043010;28;20091;-80
2022/04/18 12:48:51;;;;;;;2.72;0.80;;;;;;;;;;5040037;28;20032;-78
2022/04/18 12:51:17;;;;;;;1.88;0.50;;;;;;;;;;5044505;28;20098;-78
2022/04/18 12:53:47;;;;;;;3.22;0.68;;;;;;;;;;5043278;28;20037;-78
2022/04/18 12:56:20;;;;;;;1.58;0.50;;;;;;;;;;5038326;28;20059;-79
2022/04/18 12:58:46;;;;;;;2.50;0.57;;;17.10;61.30;;;;;;5033338;28;20539;-78
2022/04/18 13:01:21;;;;;;;0.40;0.40;;;;;;;;;;5032077;28;20151;-80
2022/04/18 13:03:47;;;;;;;2.55;0.98;;;;;;;;;;5041424;28;20033;-79
2022/04/18 13:06:14;;;;;;;2.38;0.47;;;;;;;;;;5039004;28;20037;-77
2022/04/18 13:08:41;;;;;;;2.05;0.60;;;;;;;;;;5039913;28;20464;-78
2022/04/18 13:11:07;;;;;;;0.95;0.40;;;;;;;;;;5040956;28;20036;-78
2022/04/18 13:13:33;;;;;;;2.10;0.60;;;17.20;74.60;;;;;;5042351;28;20033;-78
2022/04/18 13:16:19;;;;;;;1.73;0.70;;;;;;;;;;5040960;28;20089;-79
2022/04/18 13:18:45;;;;;;;0.57;0.43;;;;;;;;;;5038516;28;20029;-78
2022/04/18 13:21:11;;;;;;;0.68;0.60;;;;;;;;;;5041371;28;20025;-77
2022/04/18 13:23:37;;;;;;;1.98;0.65;;;;;;;;;;5039700;28;20055;-78
2022/04/18 13:26:02;;;;;;;0.88;0.38;;;;;;;;;;5039169;28;20289;-79
2022/04/18 13:28:28;;;;;;;0.73;0.43;;;;;;;;;;5043730;28;20097;-79
2022/04/18 13:30:54;;;;;;;1.80;0.63;;;;;;;;;;5039583;28;20047;-78
2022/04/18 13:33:20;;;;;;;1.30;0.50;;;;;;;;;;5041021;28;20029;-80
2022/04/18 13:38:33;;;;;;;2.90;0.60;;;;;;;;;;5047361;28;20047;-79
2022/04/18 13:40:59;;;;;;;1.45;0.47;;;;;;;;;;5041446;28;20025;-80
2022/04/18 13:43:25;;;;;;;5.55;0.60;;;;;;;;;;5046470;28;20025;-78
2022/04/18 13:45:51;;;;;;;1.33;0.60;;;;;;;;;;5042723;28;20037;-79
2022/04/18 13:48:18;;;;;;;1.02;0.50;;;;;;;;;;5045150;28;20025;-79
2022/04/18 13:50:44;;;;;;;2.15;0.45;;;;;;;;;;5039044;28;20036;-79
2022/04/18 13:53:10;;;;;;;2.42;0.47;;;;;;;;;;5039220;28;20104;-79
2022/04/18 13:55:36;;;;;;;0.68;0.30;;;;;;;;;;5046908;28;20068;-78
2022/04/18 13:58:02;;;;;;;1.13;0.60;;;;;;;;;;5042903;28;20168;-78
2022/04/18 14:00:28;;;;;;;1.02;0.50;;;;;;;;;;5038217;28;20025;-79
2022/04/18 14:02:55;;;;;;;0.68;0.40;;;;;;;;;;5044081;28;20097;-78
2022/04/18 14:05:22;;;;;;;2.50;0.50;;;;;;;;;;5043916;28;20021;-80
2022/04/18 14:07:48;;;;;;;2.05;0.68;;;;;;;;;;5040060;28;20116;-80
2022/04/18 14:10:14;;;;;;;1.83;0.80;;;;;;;;;;5051155;28;20067;-81
2022/04/18 14:12:40;;;;;;;1.17;0.47;;;;;;;;;;5046473;28;20026;-80
2022/04/18 14:20:38;;;;;;;1.25;0.30;;;;;;;;;;5053567;28;20056;-81
2022/04/18 14:23:04;;;;;;;1.25;0.50;;;;;;;;;;5054472;28;20096;-83
2022/04/18 14:25:31;;;;;;;1.13;0.30;;;;;;;;;;5055353;28;20035;-81
2022/04/18 14:27:57;;;;;;;1.48;0.30;;;;;;;;;;5052863;28;20354;-80
2022/04/18 14:30:23;;;;;;;0.98;0.40;;;;;;;;;;5047941;28;20078;-80
2022/04/18 14:32:49;;;;;;;1.25;0.30;;;;;;;;;;5050789;28;20078;-80
2022/04/18 14:35:15;;;;;;;4.97;0.65;;;;;;;;;;5056139;28;20064;-81
2022/04/18 14:37:42;;;;;;;1.42;0.50;;;;;;;;;;5048173;28;20036;-81
2022/04/18 14:40:09;;;;;;;1.27;0.30;;;;;;;;;;5048321;28;20029;-81
2022/04/18 14:42:35;;;;;;;0.60;0.30;;;;;;;;;;5045176;28;20723;-80
2022/04/18 14:45:01;;;;;;;1.65;0.45;;;;;;;;;;5049649;28;20397;-81
2022/04/18 14:47:28;;;;;;;1.02;0.52;;;;;;;;;;5048435;28;20041;-82
2022/04/18 14:49:54;;;;;;;2.13;0.47;;;;;;;;;;5050437;28;20065;-80
2022/04/18 14:52:22;;;;;;;1.15;0.40;;;;;;;;;;5043123;28;20660;-81
2022/04/18 14:54:48;;;;;;;3.47;0.55;;;;;;;;;;5043239;28;20025;-80
2022/04/18 14:57:14;;;;;;;1.40;0.30;;;;;;;;;;5048164;28;20040;-81
2022/04/18 14:59:40;;;;;;;5.38;0.70;;;;;;;;;;5041591;28;20446;-79
2022/04/18 15:02:06;;;;;;;0.63;0.38;;;;;;;;;;5048590;28;20052;-80
2022/04/18 15:04:33;;;;;;;1.27;0.60;;;;;;;;;;5047859;28;20071;-81
2022/04/18 15:06:59;;;;;;;1.23;0.90;;;;;;;;;;5046313;28;20070;-80
2022/04/18 15:09:25;;;;;;;2.10;0.47;;;;;;;;;;5041730;28;20024;-81
2022/04/18 15:11:51;;;;;;;1.25;0.50;;;;;;;;;;5044706;28;20029;-80